createdAt,value
2018-08-16T03:51:21.159Z,1020.94
2018-08-16T03:53:55.748Z,1020.97
2018-08-16T05:35:31.225Z,1020.95
2018-08-16T05:36:57.957Z,1020.95
2018-08-16T05:38:25.072Z,1020.95
2018-08-16T05:39:52.471Z,1020.96
2018-08-16T05:41:20.028Z,1020.98
2018-08-16T05:42:47.452Z,1020.99
2018-08-16T05:44:14.820Z,1020.99
2018-08-16T05:45:42.350Z,1020.96
2018-08-16T05:47:09.728Z,1020.98
2018-08-16T05:48:38.341Z,1020.94
2018-08-16T05:50:03.559Z,1020.92
2018-08-16T05:51:31.251Z,1020.94
2018-08-16T05:52:58.601Z,1020.92
2018-08-16T05:54:26.178Z,1020.86
2018-08-16T05:55:53.480Z,1020.85
2018-08-16T05:57:20.071Z,1020.82
2018-08-16T05:58:47.262Z,1020.78
2018-08-16T06:00:13.901Z,1020.76
2018-08-16T06:01:41.468Z,1020.74
2018-08-16T06:03:09.109Z,1020.78
2018-08-16T06:04:36.626Z,1020.75
2018-08-16T06:06:04.072Z,1020.72
2018-08-16T06:07:31.547Z,1020.72
2018-08-16T06:08:59.037Z,1020.72
2018-08-16T06:10:26.563Z,1020.73
2018-08-16T06:11:53.972Z,1020.74
2018-08-16T06:13:20.637Z,1020.74
2018-08-16T06:14:48.108Z,1020.74
2018-08-16T06:16:14.683Z,1020.75
2018-08-16T06:17:42.364Z,1020.72
2018-08-16T06:19:09.649Z,1020.73
2018-08-16T06:20:37.255Z,1020.74
2018-08-16T06:22:05.059Z,1020.71
2018-08-16T06:23:32.588Z,1020.70
2018-08-16T06:25:00.238Z,1020.68
2018-08-16T06:26:27.774Z,1020.67
2018-08-16T06:27:55.390Z,1020.68
2018-08-16T06:29:22.988Z,1020.70
2018-08-16T06:30:50.099Z,1020.68
2018-08-16T06:32:16.900Z,1020.67
2018-08-16T06:33:44.177Z,1020.67
2018-08-16T06:35:11.801Z,1020.67
2018-08-16T06:36:38.568Z,1020.68
2018-08-16T06:38:05.968Z,1020.71
2018-08-16T06:39:33.606Z,1020.70
2018-08-16T06:41:00.595Z,1020.66
2018-08-16T06:42:27.865Z,1020.67
2018-08-16T06:43:55.240Z,1020.61
2018-08-16T06:45:22.988Z,1020.63
2018-08-16T06:46:50.336Z,1020.65
2018-08-16T06:48:17.798Z,1020.61
2018-08-16T06:49:45.248Z,1020.61
2018-08-16T06:51:13.044Z,1020.61
2018-08-16T06:52:40.648Z,1020.61
2018-08-16T06:54:08.321Z,1020.61
2018-08-16T06:55:35.953Z,1020.61
2018-08-16T06:57:03.392Z,1020.57
2018-08-16T06:58:30.865Z,1020.56
2018-08-16T06:59:58.403Z,1020.57
2018-08-16T07:01:25.907Z,1020.56
2018-08-16T07:02:53.487Z,1020.56
2018-08-16T07:04:20.979Z,1020.54
2018-08-16T07:05:48.394Z,1020.50
2018-08-16T07:07:15.797Z,1020.52
2018-08-16T07:08:43.552Z,1020.47
2018-08-16T07:10:10.811Z,1020.48
2018-08-16T07:11:38.297Z,1020.45
2018-08-16T07:13:05.917Z,1020.44
2018-08-16T07:14:32.982Z,1020.43
2018-08-16T07:16:00.618Z,1020.45
2018-08-16T07:17:28.317Z,1020.46
2018-08-16T07:18:55.786Z,1020.46
2018-08-16T07:20:23.274Z,1020.45
2018-08-16T07:21:50.694Z,1020.43
2018-08-16T07:23:18.235Z,1020.39
2018-08-16T07:24:44.896Z,1020.40
2018-08-16T07:26:12.240Z,1020.39
2018-08-16T07:27:39.681Z,1020.39
2018-08-16T07:29:07.289Z,1020.40
2018-08-16T07:30:34.548Z,1020.42
2018-08-16T07:32:01.885Z,1020.42
2018-08-16T07:33:29.687Z,1020.40
2018-08-16T07:34:57.301Z,1020.41
2018-08-16T07:36:24.695Z,1020.40
2018-08-16T07:37:52.304Z,1020.38
2018-08-16T07:39:19.573Z,1020.38
2018-08-16T07:40:47.382Z,1020.37
2018-08-16T07:42:14.742Z,1020.37
2018-08-16T07:43:42.423Z,1020.35
2018-08-16T07:45:10.036Z,1020.36
2018-08-16T07:46:36.961Z,1020.36
2018-08-16T07:48:04.551Z,1020.33
2018-08-16T07:49:32.252Z,1020.29
2018-08-16T07:50:59.747Z,1020.30
2018-08-16T07:52:27.210Z,1020.32
2018-08-16T07:53:54.564Z,1020.28
2018-08-16T07:55:22.299Z,1020.29
2018-08-16T07:56:49.496Z,1020.30
2018-08-16T07:58:16.961Z,1020.32
2018-08-16T07:59:44.437Z,1020.33
2018-08-16T08:01:12.154Z,1020.27
2018-08-16T08:02:39.789Z,1020.31
2018-08-16T08:04:07.282Z,1020.26
2018-08-16T08:05:34.849Z,1020.26
2018-08-16T08:07:02.390Z,1020.28
2018-08-16T08:08:30.056Z,1020.27
2018-08-16T08:09:57.722Z,1020.26
2018-08-16T08:11:25.295Z,1020.25
2018-08-16T08:12:52.974Z,1020.26
2018-08-16T08:14:20.263Z,1020.26
2018-08-16T08:15:47.518Z,1020.23
2018-08-16T08:17:14.405Z,1020.24
2018-08-16T08:18:41.201Z,1020.26
2018-08-16T08:20:08.520Z,1020.23
2018-08-16T08:21:36.087Z,1020.23
2018-08-16T08:23:03.795Z,1020.22
2018-08-16T08:24:31.224Z,1020.19
2018-08-16T08:25:58.887Z,1020.19
2018-08-16T08:27:26.521Z,1020.17
2018-08-16T08:28:54.058Z,1020.17
2018-08-16T08:30:21.395Z,1020.18
2018-08-16T08:31:48.768Z,1020.15
2018-08-16T08:33:15.972Z,1020.18
2018-08-16T08:34:43.554Z,1020.17
2018-08-16T08:36:10.730Z,1020.18
2018-08-16T08:37:41.341Z,1020.17
2018-08-16T08:39:05.951Z,1020.15
2018-08-16T08:40:33.467Z,1020.12
2018-08-16T08:42:01.074Z,1020.13
2018-08-16T08:43:28.531Z,1020.08
2018-08-16T08:44:56.084Z,1020.05
2018-08-16T08:46:26.681Z,1020.03
2018-08-16T08:47:51.016Z,1019.99
2018-08-16T08:49:18.491Z,1019.99
2018-08-16T08:50:46.193Z,1019.95
2018-08-16T08:52:13.653Z,1019.98
2018-08-16T08:53:41.149Z,1019.93
2018-08-16T08:55:08.739Z,1019.95
2018-08-16T08:56:36.324Z,1019.92
2018-08-16T08:58:03.313Z,1019.87
2018-08-16T08:59:31.105Z,1019.88
2018-08-16T09:00:58.228Z,1019.87
2018-08-16T09:02:25.908Z,1019.86
2018-08-16T09:03:53.473Z,1019.84
2018-08-16T09:05:20.642Z,1019.83
2018-08-16T09:06:47.550Z,1019.80
2018-08-16T09:08:15.263Z,1019.75
2018-08-16T09:09:42.112Z,1019.76
2018-08-16T09:11:09.827Z,1019.74
2018-08-16T09:12:36.566Z,1019.71
2018-08-16T09:14:04.135Z,1019.65
2018-08-16T09:15:31.602Z,1019.64
2018-08-16T09:16:59.359Z,1019.67
2018-08-16T09:18:26.693Z,1019.67
2018-08-16T09:19:54.274Z,1019.65
2018-08-16T09:21:21.725Z,1019.65
2018-08-16T09:22:49.188Z,1019.62
2018-08-16T09:24:17.033Z,1019.64
2018-08-16T09:25:44.573Z,1019.60
2018-08-16T09:27:11.940Z,1019.61
2018-08-16T09:28:39.210Z,1019.62
2018-08-16T09:30:06.804Z,1019.60
2018-08-16T09:31:34.354Z,1019.59
2018-08-16T09:33:01.818Z,1019.60
2018-08-16T09:34:29.321Z,1019.56
2018-08-16T09:35:56.943Z,1019.57
2018-08-16T09:37:24.533Z,1019.54
2018-08-16T09:38:51.979Z,1019.54
2018-08-16T09:40:19.597Z,1019.50
2018-08-16T09:41:46.989Z,1019.48
2018-08-16T09:43:14.600Z,1019.48
2018-08-16T09:44:41.998Z,1019.47
2018-08-16T09:46:09.803Z,1019.44
2018-08-16T09:47:37.515Z,1019.42
2018-08-16T09:49:04.764Z,1019.41
2018-08-16T09:50:32.463Z,1019.42
2018-08-16T09:52:00.090Z,1019.41
2018-08-16T09:53:27.698Z,1019.39
2018-08-16T09:54:55.307Z,1019.37
2018-08-16T09:56:22.852Z,1019.41
2018-08-16T09:57:50.297Z,1019.37
2018-08-16T09:59:17.631Z,1019.29
2018-08-16T10:00:45.415Z,1019.30
2018-08-16T10:02:12.782Z,1019.29
2018-08-16T10:03:40.223Z,1019.25
2018-08-16T10:05:07.627Z,1019.31
2018-08-16T10:06:35.219Z,1019.23
2018-08-16T10:08:02.909Z,1019.25
2018-08-16T10:09:30.316Z,1019.23
2018-08-16T10:10:56.847Z,1019.22
2018-08-16T10:12:24.337Z,1019.21
2018-08-16T10:13:51.897Z,1019.22
2018-08-16T10:15:19.444Z,1019.19
2018-08-16T10:16:47.045Z,1019.19
2018-08-16T10:18:14.655Z,1019.14
2018-08-16T10:19:42.350Z,1019.15
2018-08-16T10:21:09.896Z,1019.16
2018-08-16T10:22:37.495Z,1019.12
2018-08-16T10:24:04.930Z,1019.13
2018-08-16T10:25:32.618Z,1019.12
2018-08-16T10:26:59.975Z,1019.08
2018-08-16T10:28:26.998Z,1019.09
2018-08-16T10:29:54.560Z,1019.05
2018-08-16T10:31:22.122Z,1019.04
2018-08-16T10:32:49.838Z,1019.07
2018-08-16T10:34:16.806Z,1019.04
2018-08-16T10:35:44.108Z,1019.00
2018-08-16T10:37:11.313Z,1019.01
2018-08-16T10:38:39.140Z,1018.99
2018-08-16T10:40:06.658Z,1018.99
2018-08-16T10:41:34.221Z,1018.96
2018-08-16T10:43:01.843Z,1018.93
2018-08-16T10:44:28.925Z,1018.91
2018-08-16T10:45:55.929Z,1018.95
2018-08-16T10:47:23.668Z,1018.90
2018-08-16T10:48:51.167Z,1018.89
2018-08-16T10:50:18.656Z,1018.90
2018-08-16T10:51:46.445Z,1018.90
2018-08-16T10:53:12.872Z,1018.83
2018-08-16T10:54:40.495Z,1018.86
2018-08-16T10:56:08.200Z,1018.83
2018-08-16T10:57:35.823Z,1018.84
2018-08-16T10:59:03.460Z,1018.80
2018-08-16T11:00:31.138Z,1018.77
2018-08-16T11:01:58.856Z,1018.78
2018-08-16T11:03:26.243Z,1018.77
2018-08-16T11:04:53.777Z,1018.75
2018-08-16T11:06:21.283Z,1018.73
2018-08-16T11:07:48.870Z,1018.77
2018-08-16T11:09:16.291Z,1018.73
2018-08-16T11:10:43.654Z,1018.76
2018-08-16T11:12:11.462Z,1018.66
2018-08-16T11:13:39.146Z,1018.62
2018-08-16T11:15:06.500Z,1018.58
2018-08-16T11:16:34.235Z,1018.63
2018-08-16T11:18:01.977Z,1018.56
2018-08-16T11:19:29.689Z,1018.58
2018-08-16T11:20:57.130Z,1018.53
2018-08-16T11:22:24.653Z,1018.52
2018-08-16T11:23:52.290Z,1018.54
2018-08-16T11:25:19.693Z,1018.59
2018-08-16T11:26:47.395Z,1018.58
2018-08-16T11:28:15.076Z,1018.54
2018-08-16T11:29:42.661Z,1018.54
2018-08-16T11:31:10.511Z,1018.47
2018-08-16T11:32:38.155Z,1018.43
2018-08-16T11:34:05.397Z,1018.43
2018-08-16T11:35:32.922Z,1018.46
2018-08-16T11:37:00.536Z,1018.44
2018-08-16T11:38:28.215Z,1018.35
2018-08-16T11:39:55.919Z,1018.36
2018-08-16T11:41:23.497Z,1018.32
2018-08-16T11:42:50.503Z,1018.33
2018-08-16T11:44:18.142Z,1018.29
2018-08-16T11:45:45.813Z,1018.31
2018-08-16T11:47:13.393Z,1018.28
2018-08-16T11:48:41.050Z,1018.19
2018-08-16T11:50:08.579Z,1018.22
2018-08-16T11:51:36.191Z,1018.24
2018-08-16T11:53:03.893Z,1018.21
2018-08-16T11:54:31.484Z,1018.11
2018-08-16T11:55:59.016Z,1018.08
2018-08-16T11:57:26.843Z,1018.12
2018-08-16T11:58:54.261Z,1018.10
2018-08-16T12:00:21.735Z,1018.03
2018-08-16T12:01:49.373Z,1018.08
2018-08-16T12:03:16.975Z,1018.02
2018-08-16T12:04:44.644Z,1018.03
2018-08-16T12:06:12.450Z,1018.05
2018-08-16T12:07:40.078Z,1018.06
2018-08-16T12:09:07.762Z,1018.11
2018-08-16T12:10:35.061Z,1018.09
2018-08-16T12:12:02.744Z,1018.11
2018-08-16T12:13:30.488Z,1018.07
2018-08-16T12:14:58.152Z,1018.06
2018-08-16T12:16:25.803Z,1018.07
2018-08-16T12:17:53.511Z,1018.00
2018-08-16T12:19:20.657Z,1018.03
2018-08-16T12:20:48.188Z,1018.02
2018-08-16T12:22:15.686Z,1017.99
2018-08-16T12:23:42.806Z,1017.95
2018-08-16T12:25:10.497Z,1017.94
2018-08-16T12:26:38.036Z,1017.95
2018-08-16T12:28:05.441Z,1017.85
2018-08-16T12:29:33.166Z,1017.86
2018-08-16T12:31:00.439Z,1017.87
2018-08-16T12:32:28.135Z,1017.84
2018-08-16T12:33:55.774Z,1017.82
2018-08-16T12:35:23.545Z,1017.79
2018-08-16T12:36:51.063Z,1017.82
2018-08-16T12:38:18.685Z,1017.80
2018-08-16T12:39:46.397Z,1017.77
2018-08-16T12:41:14.125Z,1017.71
2018-08-16T12:42:41.629Z,1017.75
2018-08-16T12:44:08.975Z,1017.76
2018-08-16T12:45:36.778Z,1017.74
2018-08-16T12:47:04.376Z,1017.68
2018-08-16T12:48:32.105Z,1017.66
2018-08-16T12:49:59.710Z,1017.61
2018-08-16T12:51:27.391Z,1017.63
2018-08-16T12:52:55.095Z,1017.61
2018-08-16T12:54:22.748Z,1017.59
2018-08-16T12:55:50.488Z,1017.53
2018-08-16T12:57:17.622Z,1017.51
2018-08-16T12:58:45.410Z,1017.50
2018-08-16T13:00:13.116Z,1017.47
2018-08-16T13:01:40.839Z,1017.46
2018-08-16T13:03:08.359Z,1017.47
2018-08-16T13:04:36.104Z,1017.42
2018-08-16T13:06:03.798Z,1017.45
2018-08-16T13:07:31.397Z,1017.41
2018-08-16T13:08:58.993Z,1017.39
2018-08-16T13:10:26.749Z,1017.40
2018-08-16T13:11:54.336Z,1017.37
2018-08-16T13:13:21.651Z,1017.32
2018-08-16T13:14:49.230Z,1017.29
2018-08-16T13:16:16.395Z,1017.29
2018-08-16T13:17:43.525Z,1017.30
2018-08-16T13:19:11.145Z,1017.28
2018-08-16T13:20:37.930Z,1017.27
2018-08-16T13:22:05.517Z,1017.24
2018-08-16T13:23:33.351Z,1017.28
2018-08-16T13:25:00.890Z,1017.24
2018-08-16T13:26:28.053Z,1017.21
2018-08-16T13:27:55.753Z,1017.19
2018-08-16T13:29:23.413Z,1017.14
2018-08-16T13:30:50.642Z,1017.17
2018-08-16T13:32:17.929Z,1017.14
2018-08-16T13:33:45.659Z,1017.17
2018-08-16T13:35:13.265Z,1017.19
2018-08-16T13:36:40.897Z,1017.21
2018-08-16T13:38:08.441Z,1017.16
2018-08-16T13:39:36.108Z,1017.17
2018-08-16T13:41:03.793Z,1017.17
2018-08-16T13:42:31.091Z,1017.21
2018-08-16T13:43:58.363Z,1017.17
2018-08-16T13:45:25.379Z,1017.14
2018-08-16T13:46:52.919Z,1017.13
2018-08-16T13:48:20.527Z,1017.11
2018-08-16T13:49:47.656Z,1017.05
2018-08-16T13:51:14.757Z,1017.06
2018-08-16T13:52:42.294Z,1017.07
2018-08-16T13:54:10.022Z,1017.04
2018-08-16T13:55:37.745Z,1017.01
2018-08-16T13:57:05.451Z,1017.02
2018-08-16T13:58:32.968Z,1017.02
2018-08-16T14:00:00.683Z,1016.99
2018-08-16T14:01:28.369Z,1016.98
2018-08-16T14:02:55.847Z,1016.94
2018-08-16T14:04:23.436Z,1016.89
2018-08-16T14:05:51.030Z,1016.88
2018-08-16T14:07:18.697Z,1016.85
2018-08-16T14:08:45.936Z,1016.87
2018-08-16T14:10:13.398Z,1016.83
2018-08-16T14:11:41.000Z,1016.80
2018-08-16T14:13:08.639Z,1016.83
2018-08-16T14:14:36.443Z,1016.79
2018-08-16T14:16:04.122Z,1016.79
2018-08-16T14:17:31.652Z,1016.78
2018-08-16T14:18:59.347Z,1016.78
2018-08-16T14:20:26.152Z,1016.80
2018-08-16T14:21:53.707Z,1016.76
2018-08-16T14:23:21.210Z,1016.72
2018-08-16T14:24:48.705Z,1016.74
2018-08-16T14:26:16.208Z,1016.70
2018-08-16T14:27:42.877Z,1016.73
2018-08-16T14:29:10.608Z,1016.72
2018-08-16T14:30:38.056Z,1016.73
2018-08-16T14:32:05.841Z,1016.70
2018-08-16T14:33:32.961Z,1016.68
2018-08-16T14:35:00.528Z,1016.70
2018-08-16T14:36:28.131Z,1016.73
2018-08-16T14:37:55.859Z,1016.74
2018-08-16T14:39:23.504Z,1016.75
2018-08-16T14:40:51.134Z,1016.69
2018-08-16T14:42:18.545Z,1016.73
2018-08-16T14:43:46.084Z,1016.72
2018-08-16T14:45:13.582Z,1016.72
2018-08-16T14:46:41.251Z,1016.72
2018-08-16T14:48:08.695Z,1016.75
2018-08-16T14:49:36.325Z,1016.75
2018-08-16T14:51:03.063Z,1016.77
2018-08-16T14:52:30.865Z,1016.75
2018-08-16T14:53:58.553Z,1016.71
2018-08-16T14:55:25.978Z,1016.72
2018-08-16T14:56:53.673Z,1016.72
2018-08-16T14:58:21.022Z,1016.69
2018-08-16T14:59:48.061Z,1016.73
2018-08-16T15:01:15.655Z,1016.73
2018-08-16T15:02:43.482Z,1016.71
2018-08-16T15:04:11.191Z,1016.68
2018-08-16T15:05:38.796Z,1016.66
2018-08-16T15:07:06.214Z,1016.63
2018-08-16T15:08:33.815Z,1016.66
2018-08-16T15:10:01.338Z,1016.64
2018-08-16T15:11:28.864Z,1016.67
2018-08-16T15:12:56.176Z,1016.69
2018-08-16T15:14:23.749Z,1016.63
2018-08-16T15:15:51.321Z,1016.64
2018-08-16T15:17:18.531Z,1016.60
2018-08-16T15:18:45.684Z,1016.61
2018-08-16T15:20:12.634Z,1016.61
2018-08-16T15:21:40.278Z,1016.58
2018-08-16T15:23:06.720Z,1016.53
2018-08-16T15:24:33.525Z,1016.55
2018-08-16T15:26:00.530Z,1016.58
2018-08-16T15:27:28.244Z,1016.55
2018-08-16T15:28:55.880Z,1016.52
2018-08-16T15:30:23.628Z,1016.52
2018-08-16T15:31:50.732Z,1016.51
2018-08-16T15:33:18.470Z,1016.52
2018-08-16T15:34:46.108Z,1016.51
2018-08-16T15:36:13.857Z,1016.52
2018-08-16T15:37:40.113Z,1016.51
2018-08-16T15:39:07.780Z,1016.50
2018-08-16T15:40:35.244Z,1016.51
2018-08-16T15:42:03.031Z,1016.48
2018-08-16T15:43:30.814Z,1016.50
2018-08-16T15:44:58.591Z,1016.47
2018-08-16T15:46:25.460Z,1016.48
2018-08-16T15:47:53.129Z,1016.46
2018-08-16T15:49:20.735Z,1016.44
2018-08-16T15:50:48.337Z,1016.45
2018-08-16T15:52:15.577Z,1016.44
2018-08-16T15:53:43.159Z,1016.42
2018-08-16T15:55:10.814Z,1016.43
2018-08-16T15:56:38.618Z,1016.41
2018-08-16T15:58:05.810Z,1016.44
2018-08-16T15:59:33.524Z,1016.42
2018-08-16T16:01:01.198Z,1016.41
2018-08-16T16:02:28.826Z,1016.41
2018-08-16T16:03:56.192Z,1016.42
2018-08-16T16:05:23.806Z,1016.41
2018-08-16T16:06:51.310Z,1016.40
2018-08-16T16:08:18.782Z,1016.38
2018-08-16T16:09:45.755Z,1016.39
2018-08-16T16:11:13.613Z,1016.39
2018-08-16T16:12:41.320Z,1016.41
2018-08-16T16:14:08.838Z,1016.39
2018-08-16T16:15:36.555Z,1016.35
2018-08-16T16:17:04.213Z,1016.34
2018-08-16T16:18:31.777Z,1016.33
2018-08-16T16:19:59.541Z,1016.28
2018-08-16T16:21:27.259Z,1016.31
2018-08-16T16:22:54.770Z,1016.28
2018-08-16T16:24:22.334Z,1016.28
2018-08-16T16:25:49.975Z,1016.27
2018-08-16T16:27:17.518Z,1016.26
2018-08-16T16:28:44.514Z,1016.24
2018-08-16T16:30:12.150Z,1016.27
2018-08-16T16:31:39.849Z,1016.23
2018-08-16T16:33:07.076Z,1016.23
2018-08-16T16:34:34.816Z,1016.23
2018-08-16T16:36:02.128Z,1016.22
2018-08-16T16:37:29.791Z,1016.23
2018-08-16T16:39:00.170Z,1016.21
2018-08-16T16:40:24.737Z,1016.20
2018-08-16T16:41:52.139Z,1016.18
2018-08-16T16:43:19.729Z,1016.17
2018-08-16T16:44:47.571Z,1016.15
2018-08-16T16:46:15.032Z,1016.13
2018-08-16T16:47:42.530Z,1016.12
2018-08-16T16:49:10.291Z,1016.10
2018-08-16T16:50:38.032Z,1016.09
2018-08-16T16:52:04.256Z,1016.08
2018-08-16T16:53:30.965Z,1016.09
2018-08-16T16:54:58.729Z,1016.06
2018-08-16T16:56:26.143Z,1016.06
2018-08-16T16:57:53.585Z,1016.07
2018-08-16T16:59:21.090Z,1016.06
2018-08-16T17:00:48.683Z,1016.08
2018-08-16T17:02:15.735Z,1016.06
2018-08-16T17:03:42.664Z,1016.04
2018-08-16T17:05:10.282Z,1016.05
2018-08-16T17:06:37.947Z,1016.06
2018-08-16T17:08:04.701Z,1016.04
2018-08-16T17:09:32.466Z,1016.07
2018-08-16T17:11:00.061Z,1016.07
2018-08-16T17:12:27.824Z,1016.04
2018-08-16T17:13:54.716Z,1016.04
2018-08-16T17:15:21.560Z,1016.04
2018-08-16T17:16:49.071Z,1016.02
2018-08-16T17:18:16.592Z,1016.05
2018-08-16T17:19:43.249Z,1016.06
2018-08-16T17:21:10.943Z,1016.08
2018-08-16T17:22:38.630Z,1016.07
2018-08-16T17:24:05.674Z,1016.05
2018-08-16T17:25:33.308Z,1016.06
2018-08-16T17:26:59.625Z,1016.05
2018-08-16T17:28:26.390Z,1016.05
2018-08-16T17:29:53.995Z,1016.05
2018-08-16T17:31:21.632Z,1016.04
2018-08-16T17:32:49.406Z,1016.06
2018-08-16T17:34:17.023Z,1016.05
2018-08-16T17:35:44.654Z,1016.08
2018-08-16T17:37:12.173Z,1016.05
2018-08-16T17:38:39.914Z,1016.05
2018-08-16T17:40:07.599Z,1016.05
2018-08-16T17:41:35.287Z,1016.04
2018-08-16T17:43:03.027Z,1016.05
2018-08-16T17:44:30.590Z,1016.08
2018-08-16T17:45:57.572Z,1016.05
2018-08-16T17:47:25.066Z,1016.05
2018-08-16T17:48:52.538Z,1016.06
2018-08-16T17:50:19.719Z,1016.06
2018-08-16T17:51:46.840Z,1016.07
2018-08-16T17:53:13.433Z,1016.06
2018-08-16T17:54:41.117Z,1016.09
2018-08-16T17:56:08.656Z,1016.08
2018-08-16T17:57:36.193Z,1016.08
2018-08-16T17:59:03.504Z,1016.07
2018-08-16T18:00:31.224Z,1016.07
2018-08-16T18:01:58.725Z,1016.07
2018-08-16T18:03:26.290Z,1016.09
2018-08-16T18:04:53.062Z,1016.14
2018-08-16T18:06:20.171Z,1016.18
2018-08-16T18:07:46.948Z,1016.23
2018-08-16T18:09:14.536Z,1016.25
2018-08-16T18:10:41.334Z,1016.25
2018-08-16T18:12:08.267Z,1016.26
2018-08-16T18:13:35.912Z,1016.25
2018-08-16T18:15:03.533Z,1016.27
2018-08-16T18:16:31.055Z,1016.27
2018-08-16T18:17:57.562Z,1016.28
2018-08-16T18:19:24.383Z,1016.28
2018-08-16T18:20:51.200Z,1016.28
2018-08-16T18:22:18.652Z,1016.30
2018-08-16T18:23:45.675Z,1016.28
2018-08-16T18:25:13.261Z,1016.28
2018-08-16T18:26:40.663Z,1016.27
2018-08-16T18:28:07.624Z,1016.30
2018-08-16T18:29:35.236Z,1016.28
2018-08-16T18:31:01.939Z,1016.28
2018-08-16T18:32:29.551Z,1016.28
2018-08-16T18:33:57.141Z,1016.26
2018-08-16T18:35:23.872Z,1016.29
2018-08-16T18:36:51.316Z,1016.30
2018-08-16T18:38:18.660Z,1016.30
2018-08-16T18:39:46.158Z,1016.33
2018-08-16T18:41:13.678Z,1016.36
2018-08-16T18:42:41.468Z,1016.35
2018-08-16T18:44:08.285Z,1016.34
2018-08-16T18:45:35.070Z,1016.34
2018-08-16T18:47:02.708Z,1016.34
2018-08-16T18:48:30.264Z,1016.34
2018-08-16T18:49:56.840Z,1016.36
2018-08-16T18:51:24.491Z,1016.37
2018-08-16T18:52:51.665Z,1016.38
2018-08-16T18:54:19.161Z,1016.34
2018-08-16T18:55:45.976Z,1016.35
2018-08-16T18:57:12.309Z,1016.36
2018-08-16T18:58:39.109Z,1016.39
2018-08-16T19:00:05.953Z,1016.41
2018-08-16T19:01:33.426Z,1016.42
2018-08-16T19:03:01.016Z,1016.45
2018-08-16T19:04:28.708Z,1016.49
2018-08-16T19:05:56.363Z,1016.47
2018-08-16T19:07:24.103Z,1016.48
2018-08-16T19:08:51.537Z,1016.48
2018-08-16T19:10:18.948Z,1016.46
2018-08-16T19:11:46.593Z,1016.47
2018-08-16T19:13:14.274Z,1016.45
2018-08-16T19:14:41.899Z,1016.44
2018-08-16T19:16:09.114Z,1016.44
2018-08-16T19:17:36.573Z,1016.43
2018-08-16T19:19:04.259Z,1016.43
2018-08-16T19:20:31.720Z,1016.42
2018-08-16T19:21:59.425Z,1016.45
2018-08-16T19:23:25.948Z,1016.47
2018-08-16T19:24:53.487Z,1016.48
2018-08-16T19:26:21.032Z,1016.49
2018-08-16T19:27:48.610Z,1016.48
2018-08-16T19:29:16.213Z,1016.47
2018-08-16T19:30:43.252Z,1016.44
2018-08-16T19:32:10.118Z,1016.42
2018-08-16T19:33:37.590Z,1016.42
2018-08-16T19:35:05.196Z,1016.42
2018-08-16T19:36:32.781Z,1016.41
2018-08-16T19:38:00.317Z,1016.39
2018-08-16T19:39:27.756Z,1016.38
2018-08-16T19:40:55.441Z,1016.39
2018-08-16T19:42:21.714Z,1016.40
2018-08-16T19:43:48.431Z,1016.39
2018-08-16T19:45:15.717Z,1016.41
2018-08-16T19:46:43.263Z,1016.42
2018-08-16T19:48:11.035Z,1016.44
2018-08-16T19:49:38.415Z,1016.44
2018-08-16T19:51:05.894Z,1016.42
2018-08-16T19:52:32.293Z,1016.43
2018-08-16T19:53:59.517Z,1016.44
2018-08-16T19:55:26.937Z,1016.46
2018-08-16T19:56:53.798Z,1016.47
2018-08-16T19:59:47.942Z,1016.48
2018-08-16T20:01:14.839Z,1016.46
2018-08-16T20:02:42.145Z,1016.46
2018-08-16T20:04:09.644Z,1016.46
2018-08-16T20:05:37.233Z,1016.45
2018-08-16T20:07:03.721Z,1016.46
2018-08-16T20:08:31.104Z,1016.44
2018-08-16T20:09:58.592Z,1016.45
2018-08-16T20:11:26.192Z,1016.43
2018-08-16T20:12:53.505Z,1016.44
2018-08-16T20:14:21.169Z,1016.46
2018-08-16T20:15:48.363Z,1016.48
2018-08-16T20:17:15.246Z,1016.47
2018-08-16T20:18:41.763Z,1016.46
2018-08-16T20:20:09.407Z,1016.47
2018-08-16T20:21:37.061Z,1016.47
2018-08-16T20:23:04.497Z,1016.45
2018-08-16T20:24:31.957Z,1016.44
2018-08-16T20:25:59.424Z,1016.44
2018-08-16T20:27:27.117Z,1016.43
2018-08-16T20:28:53.939Z,1016.42
2018-08-16T20:30:20.808Z,1016.43
2018-08-16T20:31:47.979Z,1016.42
2018-08-16T20:33:15.642Z,1016.43
2018-08-16T20:34:43.022Z,1016.45
2018-08-16T20:36:10.619Z,1016.44
2018-08-16T20:37:37.319Z,1016.44
2018-08-16T20:39:04.985Z,1016.41
2018-08-16T20:40:32.325Z,1016.40
2018-08-16T20:41:59.951Z,1016.40
2018-08-16T20:43:27.444Z,1016.41
2018-08-16T20:44:54.831Z,1016.39
2018-08-16T20:46:22.504Z,1016.38
2018-08-16T20:47:49.309Z,1016.38
2018-08-16T20:49:16.831Z,1016.35
2018-08-16T20:50:44.420Z,1016.36
2018-08-16T20:52:11.939Z,1016.37
2018-08-16T20:53:39.437Z,1016.36
2018-08-16T20:55:07.083Z,1016.37
2018-08-16T20:56:33.448Z,1016.40
2018-08-16T20:58:01.029Z,1016.42
2018-08-16T20:59:27.445Z,1016.42
2018-08-16T21:00:55.101Z,1016.44
2018-08-16T21:02:22.593Z,1016.44
2018-08-16T21:03:49.688Z,1016.40
2018-08-16T21:05:17.294Z,1016.40
2018-08-16T21:06:43.931Z,1016.43
2018-08-16T21:08:11.265Z,1016.43
2018-08-16T21:09:38.932Z,1016.42
2018-08-16T21:11:05.154Z,1016.43
2018-08-16T21:12:32.560Z,1016.43
2018-08-16T21:14:00.265Z,1016.41
2018-08-16T21:15:26.789Z,1016.41
2018-08-16T21:16:54.344Z,1016.42
2018-08-16T21:18:21.271Z,1016.43
2018-08-16T21:19:48.626Z,1016.45
2018-08-16T21:21:16.227Z,1016.46
2018-08-16T21:22:43.800Z,1016.47
2018-08-16T21:24:11.283Z,1016.48
2018-08-16T21:25:38.777Z,1016.54
2018-08-16T21:27:05.519Z,1016.52
2018-08-16T21:28:32.935Z,1016.54
2018-08-16T21:30:00.515Z,1016.57
2018-08-16T21:31:28.002Z,1016.59
2018-08-16T21:32:55.719Z,1016.65
2018-08-16T21:34:23.442Z,1016.66
2018-08-16T21:35:50.262Z,1016.68
2018-08-16T21:37:16.549Z,1016.68
2018-08-16T21:38:44.015Z,1016.70
2018-08-16T21:40:11.731Z,1016.71
2018-08-16T21:41:39.264Z,1016.70
2018-08-16T21:43:06.867Z,1016.72
2018-08-16T21:44:34.313Z,1016.71
2018-08-16T21:46:02.005Z,1016.73
2018-08-16T21:47:28.093Z,1016.72
2018-08-16T21:48:55.678Z,1016.73
2018-08-16T21:50:23.164Z,1016.72
2018-08-16T21:51:49.577Z,1016.71
2018-08-16T21:53:15.989Z,1016.71
2018-08-16T21:54:43.369Z,1016.68
2018-08-16T21:56:10.888Z,1016.70
2018-08-16T21:57:38.598Z,1016.70
2018-08-16T21:59:06.250Z,1016.69
2018-08-16T22:00:33.748Z,1016.70
2018-08-16T22:02:01.472Z,1016.73
2018-08-16T22:03:28.944Z,1016.71
2018-08-16T22:04:56.439Z,1016.71
2018-08-16T22:06:23.947Z,1016.70
2018-08-16T22:07:51.060Z,1016.70
2018-08-16T22:09:18.518Z,1016.69
2018-08-16T22:10:45.114Z,1016.70
2018-08-16T22:12:11.830Z,1016.69
2018-08-16T22:13:39.131Z,1016.68
2018-08-16T22:15:06.525Z,1016.70
2018-08-16T22:16:34.008Z,1016.69
2018-08-16T22:18:01.618Z,1016.72
2018-08-16T22:19:28.327Z,1016.72
2018-08-16T22:20:54.719Z,1016.72
2018-08-16T22:22:22.303Z,1016.74
2018-08-16T22:23:49.281Z,1016.74
2018-08-16T22:25:16.776Z,1016.74
2018-08-16T22:26:44.221Z,1016.74
2018-08-16T22:28:11.700Z,1016.72
2018-08-16T22:29:39.363Z,1016.73
2018-08-16T22:31:06.838Z,1016.72
2018-08-16T22:32:33.337Z,1016.75
2018-08-16T22:34:01.028Z,1016.75
2018-08-16T22:35:28.261Z,1016.76
2018-08-16T22:36:54.987Z,1016.76
2018-08-16T22:38:22.577Z,1016.73
2018-08-16T22:39:48.980Z,1016.73
2018-08-16T22:41:15.738Z,1016.71
2018-08-16T22:42:42.323Z,1016.70
2018-08-16T22:44:08.485Z,1016.67
2018-08-16T22:45:35.997Z,1016.64
2018-08-16T22:47:03.441Z,1016.64
2018-08-16T22:48:30.778Z,1016.65
2018-08-16T22:49:57.540Z,1016.65
2018-08-16T22:51:23.955Z,1016.68
2018-08-16T22:52:51.544Z,1016.66
2018-08-16T22:54:18.920Z,1016.65
2018-08-16T22:55:46.555Z,1016.65
2018-08-16T22:57:13.983Z,1016.65
2018-08-16T22:58:41.591Z,1016.64
2018-08-16T23:00:09.203Z,1016.61
2018-08-16T23:01:36.822Z,1016.60
2018-08-16T23:03:03.637Z,1016.56
2018-08-16T23:04:30.931Z,1016.56
2018-08-16T23:05:58.422Z,1016.58
2018-08-16T23:07:24.902Z,1016.57
2018-08-16T23:08:52.178Z,1016.59
2018-08-16T23:10:19.776Z,1016.59